»·PEaware :: AAL343 KGJT-KCOS

AAL343 :: KGJT-KCOS

FLIGHT INFORMATION

Flight Status: Arrived
Operator:
American Airlines
More flights by this operator :: More flights under this callsign
Pilot: James W. (12414)
Aircraft: BOEING 737-800
(B738)
More flights by this aircraft type
Origin: KGJT Walker
United States
Destination: KCOS City Of Colorado Springs Mun
United States
More flights between these airports :: More routes between these airports
Route: RHONE2 JNC HUB DBRY3
File this flight plan on PilotEdge
Remarks:
Altitude:
(Current/Filed)
290ft
Speed:
(Current/Filed)
450kts
Departed: 09-Oct-17 03:48 PM
Arrived: 09-Oct-17 04:31 PM
Distance/Time
Traveled:
179nm/0:42
Distance/Time
To Go:
Arrived

Flight Plot

Page will automatically refresh every two minutes.

Flight plan parsing failed; only flown route is shown


Map Options




Map Legend


Flown Route
Filed Route
Departure Airport
Arrival Airport
Navaid (VOR, NDB)
Fix

Horizontal Profiles

Position Reports

Time Latitude Longitude Heading Altitude Ground
Speed
09-Oct-17 15:22 39.122967 -108.528274 260 4864ft 0kts
09-Oct-17 15:23 39.122967 -108.528274 260 4864ft 0kts
09-Oct-17 15:24 39.122967 -108.528274 260 4864ft 0kts
09-Oct-17 15:25 39.122967 -108.528274 260 4864ft 0kts
09-Oct-17 15:26 39.122967 -108.528274 260 4864ft 0kts
09-Oct-17 15:27 39.122967 -108.528274 260 4864ft 0kts
09-Oct-17 15:28 39.122967 -108.528274 260 4864ft 0kts
09-Oct-17 15:29 39.122967 -108.528274 260 4864ft 0kts
09-Oct-17 15:30 39.122967 -108.528274 260 4864ft 0kts
09-Oct-17 15:31 39.122967 -108.528274 260 4864ft 0kts
09-Oct-17 15:32 39.122967 -108.528274 260 4864ft 0kts
09-Oct-17 15:33 39.122967 -108.528274 260 4864ft 0kts
09-Oct-17 15:33 39.122967 -108.528274 260 4864ft 0kts
09-Oct-17 15:35 39.122967 -108.528274 260 4864ft 0kts
09-Oct-17 15:35 39.122967 -108.528274 260 4864ft 0kts
09-Oct-17 15:36 39.122967 -108.528274 260 4864ft 0kts
09-Oct-17 15:38 39.122967 -108.528274 260 4864ft 0kts
09-Oct-17 15:39 39.122967 -108.528274 260 4864ft 0kts
09-Oct-17 15:39 39.122967 -108.528274 260 4864ft 0kts
09-Oct-17 15:40 39.122967 -108.528274 260 4864ft 0kts
09-Oct-17 15:41 39.122967 -108.528274 260 4864ft 0kts
09-Oct-17 15:42 39.122967 -108.528274 260 4864ft 0kts
09-Oct-17 15:43 39.122967 -108.528274 260 4864ft 0kts
09-Oct-17 15:44 39.122971 -108.528272 261 4865ft 0kts
09-Oct-17 15:45 39.123256 -108.527888 156 4865ft 1kts
09-Oct-17 15:46 39.123331 -108.527966 123 4865ft 0kts
09-Oct-17 15:47 39.123159 -108.527448 108 4865ft 5kts
09-Oct-17 15:48 39.122709 -108.524469 124 4865ft 10kts
09-Oct-17 15:49 39.119363 -108.518335 123 4865ft 27kts
09-Oct-17 15:50 39.118333 -108.516454 124 4864ft 0kts
09-Oct-17 15:51 39.118741 -108.514817 313 4865ft 6kts
09-Oct-17 15:52 39.136337 -108.547810 305 5538ft 200kts
09-Oct-17 15:53 39.164457 -108.623185 262 8067ft 281kts
09-Oct-17 15:54 39.117916 -108.707999 229 10805ft 312kts
09-Oct-17 15:55 39.040963 -108.727132 133 13468ft 333kts
09-Oct-17 15:56 38.999200 -108.621139 108 16271ft 355kts
09-Oct-17 15:57 38.958358 -108.503221 108 18921ft 381kts
09-Oct-17 15:58 38.914429 -108.378116 108 21333ft 402kts
09-Oct-17 15:59 38.870546 -108.252923 108 23215ft 424kts
09-Oct-17 16:00 38.822530 -108.115551 107 25376ft 443kts
09-Oct-17 16:01 38.772699 -107.972466 107 27399ft 462kts
09-Oct-17 16:02 38.720720 -107.822676 107 29169ft 480kts
09-Oct-17 16:03 38.667625 -107.669195 106 29268ft 481kts
09-Oct-17 16:04 38.614442 -107.514740 106 29271ft 481kts
09-Oct-17 16:05 38.561564 -107.360618 106 29253ft 482kts
09-Oct-17 16:06 38.509328 -107.207723 106 29235ft 482kts
09-Oct-17 16:07 38.456333 -107.051936 105 29232ft 480kts
09-Oct-17 16:08 38.442553 -106.888420 89 29250ft 480kts
09-Oct-17 16:09 38.432478 -106.720427 93 29241ft 481kts
09-Oct-17 16:10 38.421813 -106.552048 92 29240ft 482kts
09-Oct-17 16:11 38.411612 -106.385635 92 29332ft 481kts
09-Oct-17 16:12 38.401643 -106.220185 93 29383ft 481kts
09-Oct-17 16:13 38.391870 -106.054376 92 29384ft 482kts
09-Oct-17 16:14 38.382399 -105.888761 92 27501ft 464kts
09-Oct-17 16:15 38.373634 -105.734224 89 25470ft 438kts
09-Oct-17 16:16 38.365722 -105.587656 89 23371ft 417kts
09-Oct-17 16:17 38.358083 -105.445402 90 21313ft 403kts
09-Oct-17 16:18 38.350900 -105.308533 90 19249ft 390kts
09-Oct-17 16:19 38.344124 -105.175183 91 17176ft 377kts
09-Oct-17 16:20 38.336885 -105.046068 92 15983ft 372kts
09-Oct-17 16:21 38.328631 -104.927325 92 15910ft 305kts
09-Oct-17 16:22 38.321918 -104.828991 92 15980ft 281kts
09-Oct-17 16:23 38.315258 -104.730519 92 15974ft 273kts
09-Oct-17 16:24 38.335285 -104.651585 24 15628ft 257kts
09-Oct-17 16:25 38.395667 -104.639218 359 14045ft 220kts
09-Oct-17 16:26 38.451874 -104.664500 337 11689ft 220kts
09-Oct-17 16:27 38.505321 -104.697276 334 9188ft 211kts
09-Oct-17 16:28 38.550030 -104.715313 358 8929ft 157kts
09-Oct-17 16:29 38.594406 -104.716037 358 8962ft 160kts
09-Oct-17 16:30 38.638620 -104.716204 359 8971ft 160kts
09-Oct-17 16:31 38.681215 -104.716240 358 8475ft 155kts
09-Oct-17 16:32 38.723030 -104.717416 357 7312ft 147kts
09-Oct-17 16:33 38.762746 -104.716162 0 6582ft 143kts
09-Oct-17 16:34 38.801369 -104.715986 359 6208ft 126kts
09-Oct-17 16:35 38.813294 -104.714933 31 6208ft 17kts
09-Oct-17 16:36 38.814125 -104.713867 100 6208ft 8kts
09-Oct-17 16:37 38.811533 -104.713477 176 6208ft 11kts
09-Oct-17 16:38 38.806210 -104.713471 179 6208ft 21kts

Navigation Log

Ident Type
Flight plan parsing failed, navigation log unavailable